Time;durP1;ratioP1;P1;durP2;ratioP2;P2;SDS_P1;SDS_P2;PMS_P1;PMS_P2;Temp;Humidity;BMP_temperature;BMP_pressure;BME280_temperature;BME280_humidity;BME280_pressure;Samples;Min_cycle;Max_cycle;Signal;HPM_P1;HPM_P2
2021/04/27 00:01:41;;;;;;;3.22;1.50;;;;;;;;;;5084164;28;20040;-54
2021/04/27 00:04:07;;;;;;;4.30;1.73;;;;;;;;;;5083441;28;20053;-53
2021/04/27 00:06:33;;;;;;;3.75;1.83;;;;;;;;;;5073230;28;20126;-53
2021/04/27 00:09:00;;;;;;;4.95;1.50;;;;;;;;;;5054927;28;20070;-56
2021/04/27 00:11:26;;;;;;;1.77;1.17;;;;;;;;;;5070622;28;20120;-54
2021/04/27 00:13:52;;;;;;;3.30;1.73;;;;;;;;;;5087953;28;20047;-56
2021/04/27 00:16:19;;;;;;;3.53;1.70;;;;;;;;;;5089280;28;20075;-56
2021/04/27 00:18:46;;;;;;;2.73;1.60;;;;;;;;;;5078380;28;20612;-55
2021/04/27 00:21:13;;;;;;;2.40;1.63;;;;;;;;;;5086921;28;20491;-53
2021/04/27 00:23:39;;;;;;;4.20;1.63;;;;;;;;;;5085698;28;20042;-53
2021/04/27 00:26:05;;;;;;;2.45;1.38;;;;;;;;;;5080699;28;20089;-54
2021/04/27 00:28:31;;;;;;;4.28;1.50;;;;;;;;;;5082212;28;20476;-54
2021/04/27 00:30:58;;;;;;;4.30;1.50;;;;;;;;;;5092743;28;20048;-54
2021/04/27 00:33:24;;;;;;;4.40;1.85;;;;;;;;;;5078236;28;20493;-56
2021/04/27 00:35:50;;;;;;;4.95;1.35;;;;;;;;;;5071125;28;20044;-50
2021/04/27 00:38:17;;;;;;;5.00;2.08;;;;;;;;;;5089817;28;20063;-50
2021/04/27 00:40:43;;;;;;;5.03;1.58;;;;;;;;;;5090990;28;20400;-56
2021/04/27 00:43:10;;;;;;;5.05;1.45;;;;;;;;;;5084558;28;20044;-51
2021/04/27 00:45:37;;;;;;;4.50;1.85;;;;;;;;;;5083595;28;20040;-53
2021/04/27 00:48:04;;;;;;;1.57;1.37;;;;;;;;;;5090491;28;20077;-57
2021/04/27 00:50:30;;;;;;;;;;;;;;;;;;5084435;28;20032;-53
2021/04/27 00:52:58;;;;;;;4.35;1.77;;;;;;;;;;5082693;28;19935;-53
2021/04/27 00:55:25;;;;;;;2.05;1.65;;;;;;;;;;5087077;28;20050;-57
2021/04/27 00:57:51;;;;;;;;;;;;;;;;;;5087575;28;20564;-53
2021/04/27 01:00:24;;;;;;;2.83;1.50;;;;;;;;;;5070998;28;19920;-55
2021/04/27 01:02:50;;;;;;;4.90;2.00;;;;;;;;;;5083916;28;20081;-54
2021/04/27 01:05:18;;;;;;;1.97;1.50;;;;;;;;;;5088714;28;20048;-55
2021/04/27 01:07:49;;;;;;;5.13;1.58;;;;;;;;;;5080560;28;20032;-57
2021/04/27 01:10:18;;;;;;;2.92;1.70;;;;;;;;;;5083725;28;20044;-52
2021/04/27 01:12:50;;;;;;;5.53;1.80;;;;;;;;;;5084215;28;20127;-55
2021/04/27 01:15:18;;;;;;;8.27;1.52;;;;;;;;;;5086247;28;20045;-55
2021/04/27 01:17:45;;;;;;;5.15;1.77;;;;;;;;;;5079289;28;20041;-54
2021/04/27 01:20:38;;;;;;;3.17;1.50;;;;;;;;;;5081235;28;20044;-55
2021/04/27 01:23:12;;;;;;;1.88;1.70;;;;;;;;;;5078273;28;20538;-55
2021/04/27 01:25:48;;;;;;;3.63;1.80;;;;;;;;;;5085667;28;20036;-56
2021/04/27 01:28:15;;;;;;;6.20;1.67;;;;;;;;;;5068667;28;20086;-52
2021/04/27 01:30:42;;;;;;;3.10;1.50;;;;;;;;;;5079761;28;20397;-54
2021/04/27 01:33:25;;;;;;;4.85;1.67;;;;;;;;;;5083875;28;20093;-56
2021/04/27 01:35:52;;;;;;;5.78;2.10;;;;;;;;;;5086304;28;20097;-55
2021/04/27 01:38:20;;;;;;;3.92;1.58;;;;;;;;;;5088326;28;20048;-55
2021/04/27 01:40:46;;;;;;;4.60;1.42;;;;;;;;;;5091124;28;20563;-54
2021/04/27 01:43:13;;;;;;;1.23;1.13;;;;;;;;;;5089034;28;20527;-56
2021/04/27 01:45:40;;;;;;;;;;;;;;;;;;5086823;28;20042;-54
2021/04/27 01:48:07;;;;;;;2.15;1.50;;;;;;;;;;5087128;28;20012;-57
2021/04/27 01:50:37;;;;;;;3.10;1.40;;;;;;;;;;5060601;28;20679;-54
2021/04/27 01:53:22;;;;;;;2.35;1.65;;;;;;;;;;5084164;28;20047;-54
2021/04/27 01:55:49;;;;;;;4.53;1.58;;;;;;;;;;5084151;28;20605;-55
2021/04/27 01:58:15;;;;;;;3.85;1.65;;;;;;;;;;5083548;28;20040;-55
2021/04/27 02:00:42;;;;;;;10.15;1.60;;;;;;;;;;5068277;28;20036;-52
2021/04/27 02:03:09;;;;;;;6.68;1.80;;;;;;;;;;5088954;28;20044;-54
2021/04/27 02:05:36;;;;;;;3.63;1.40;;;;;;;;;;5083502;28;20050;-56
2021/04/27 02:08:25;;;;;;;3.38;1.75;;;;;;;;;;5071972;28;20106;-54
2021/04/27 02:10:56;;;;;;;7.50;1.85;;;;;;;;;;5078148;28;20174;-54
2021/04/27 02:13:22;;;;;;;;;;;;;;;;;;5074029;28;20110;-54
2021/04/27 02:16:09;;;;;;;5.30;1.70;;;;;;;;;;5079604;28;19943;-55
2021/04/27 02:18:44;;;;;;;6.97;2.03;;;;;;;;;;5090255;28;20058;-55
2021/04/27 02:21:15;;;;;;;6.38;2.00;;;;;;;;;;5087223;28;20155;-56
2021/04/27 02:24:00;;;;;;;2.58;1.90;;;;;;;;;;5084618;28;20051;-55
2021/04/27 02:26:30;;;;;;;3.72;1.70;;;;;;;;;;5066103;28;20044;-57
2021/04/27 02:29:03;;;;;;;7.50;1.85;;;;;;;;;;5084560;28;20090;-54
2021/04/27 02:31:30;;;;;;;3.17;1.45;;;;;;;;;;5084415;28;20080;-56
2021/04/27 02:33:56;;;;;;;2.83;1.42;;;;;;;;;;5088232;28;20090;-57
2021/04/27 02:36:23;;;;;;;6.22;2.03;;;;;;;;;;5083763;28;20047;-56
2021/04/27 02:39:21;;;;;;;3.25;1.98;;;;;;;;;;5063576;28;20055;-55
2021/04/27 02:41:48;;;;;;;1.90;1.70;;;;;;;;;;5069847;28;20047;-54
2021/04/27 02:44:35;;;;;;;2.72;1.70;;;;;;;;;;5083412;28;20431;-55
2021/04/27 02:47:03;;;;;;;3.10;1.90;;;;;;;;;;5084361;28;20048;-57
2021/04/27 02:49:29;;;;;;;2.60;1.70;;;;;;;;;;5084054;28;20066;-56
2021/04/27 02:52:01;;;;;;;4.30;1.95;;;;;;;;;;5070890;28;20185;-52
2021/04/27 02:54:31;;;;;;;5.57;1.95;;;;;;;;;;5070431;28;20060;-54
2021/04/27 02:56:58;;;;;;;6.22;1.90;;;;;;;;;;5081859;28;20085;-53
2021/04/27 02:59:35;;;;;;;8.65;2.10;;;;;;;;;;5070418;28;20409;-56
2021/04/27 03:02:02;;;;;;;2.10;1.50;;;;;;;;;;5077719;28;20071;-56
2021/04/27 03:04:28;;;;;;;3.85;1.92;;;;;;;;;;5067787;28;20297;-57
2021/04/27 03:07:10;;;;;;;4.57;1.77;;;;;;;;;;5071945;28;20499;-54
2021/04/27 03:09:41;;;;;;;4.45;2.20;;;;;;;;;;5083781;28;20044;-57
2021/04/27 03:12:07;;;;;;;4.50;1.50;;;;;;;;;;5062436;28;20052;-57
2021/04/27 03:14:37;;;;;;;3.53;1.92;;;;;;;;;;5083082;28;20040;-51
2021/04/27 03:17:04;;;;;;;;;;;;;;;;;;5069967;28;20051;-53
2021/04/27 03:19:31;;;;;;;8.70;2.05;;;;;;;;;;5068982;28;20630;-55
2021/04/27 03:22:12;;;;;;;5.85;2.28;;;;;;;;;;5084262;28;20189;-56
2021/04/27 03:24:38;;;;;;;5.60;2.13;;;;;;;;;;5084004;28;20377;-56
2021/04/27 03:27:05;;;;;;;6.60;2.22;;;;;;;;;;5070174;28;20041;-56
2021/04/27 03:29:49;;;;;;;6.45;2.45;;;;;;;;;;5066709;28;20055;-56
2021/04/27 03:32:17;;;;;;;5.63;1.88;;;;;;;;;;5081020;28;20416;-54
2021/04/27 03:34:43;;;;;;;4.80;2.30;;;;;;;;;;5081092;28;20043;-53
2021/04/27 03:37:10;;;;;;;4.43;2.40;;;;;;;;;;5085468;28;20048;-57
2021/04/27 03:39:37;;;;;;;4.90;2.33;;;;;;;;;;5084998;28;20291;-56
2021/04/27 03:42:04;;;;;;;7.57;2.58;;;;;;;;;;5084219;28;20500;-54
2021/04/27 03:44:31;;;;;;;4.38;2.38;;;;;;;;;;5083727;28;20054;-56
2021/04/27 03:46:59;;;;;;;3.47;2.25;;;;;;;;;;5069187;28;20072;-56
2021/04/27 03:49:26;;;;;;;4.20;2.15;;;;;;;;;;5087862;28;20032;-55
2021/04/27 03:51:53;;;;;;;4.60;2.20;;;;;;;;;;5081079;28;20123;-56
2021/04/27 03:54:20;;;;;;;4.13;1.90;;;;;;;;;;5086260;28;20044;-56
2021/04/27 03:56:47;;;;;;;4.90;2.17;;;;;;;;;;5089960;28;20036;-54
2021/04/27 03:59:13;;;;;;;6.07;2.20;;;;;;;;;;5089495;28;20044;-55
2021/04/27 04:01:42;;;;;;;12.45;2.60;;;;;;;;;;5088031;28;20399;-54
2021/04/27 04:04:08;;;;;;;8.95;2.10;;;;;;;;;;5089972;28;20063;-58
2021/04/27 04:06:35;;;;;;;3.75;1.65;;;;;;;;;;5090963;28;20045;-54
2021/04/27 04:09:03;;;;;;;5.05;2.30;;;;;;;;;;5091985;28;20036;-54
2021/04/27 04:11:51;;;;;;;5.88;2.15;;;;;;;;;;5085490;28;20139;-57
2021/04/27 04:14:17;;;;;;;10.02;1.95;;;;;;;;;;5090039;28;20044;-57
2021/04/27 04:17:04;;;;;;;6.75;1.80;;;;;;;;;;5089414;28;20064;-57
2021/04/27 04:19:31;;;;;;;5.47;1.65;;;;;;;;;;5109394;27;20109;-58
2021/04/27 04:22:03;;;;;;;2.47;1.60;;;;;;;;;;5088046;28;20044;-57
2021/04/27 04:24:35;;;;;;;2.60;1.58;;;;;;;;;;5090084;28;20047;-57
2021/04/27 04:27:03;;;;;;;5.30;1.70;;;;;;;;;;5086312;28;20344;-56
2021/04/27 04:29:55;;;;;;;2.83;1.80;;;;;;;;;;5068057;28;20082;-57
2021/04/27 04:32:37;;;;;;;2.63;1.65;;;;;;;;;;5089326;28;20046;-58
2021/04/27 04:35:23;;;;;;;4.63;1.67;;;;;;;;;;5086732;28;20050;-58
2021/04/27 04:38:08;;;;;;;10.73;2.30;;;;;;;;;;5084616;28;20066;-57
2021/04/27 04:40:52;;;;;;;3.13;1.48;;;;;;;;;;5084057;28;20097;-56
2021/04/27 04:43:54;;;;;;;4.72;1.60;;;;;;;;;;5086423;28;20055;-57
2021/04/27 04:46:39;;;;;;;4.72;1.60;;;;;;;;;;5083516;28;20121;-56
2021/04/27 04:49:27;;;;;;;5.75;1.58;;;;;;;;;;5051999;28;20102;-57
2021/04/27 04:52:16;;;;;;;5.22;1.83;;;;;;;;;;5085878;28;20050;-58
2021/04/27 04:55:01;;;;;;;3.92;1.90;;;;;;;;;;5086781;28;20047;-58
2021/04/27 04:57:51;;;;;;;1.73;1.20;;;;;;;;;;5088843;28;20059;-54
2021/04/27 05:00:21;;;;;;;9.77;1.85;;;;;;;;;;5086810;28;20048;-57
2021/04/27 05:03:19;;;;;;;3.47;1.27;;;;;;;;;;5048073;28;20091;-58
2021/04/27 05:06:04;;;;;;;4.68;1.50;;;;;;;;;;5086668;28;20051;-57
2021/04/27 05:08:51;;;;;;;2.92;1.70;;;;;;;;;;5083944;28;20067;-59
2021/04/27 05:11:39;;;;;;;4.68;1.50;;;;;;;;;;5085753;28;20091;-57
2021/04/27 05:14:24;;;;;;;5.75;1.55;;;;;;;;;;5086241;28;20092;-57
2021/04/27 05:16:51;;;;;;;5.00;1.65;;;;;;;;;;5087296;28;20040;-57
2021/04/27 05:19:17;;;;;;;3.90;1.38;;;;;;;;;;5080420;28;20127;-56
2021/04/27 05:21:43;;;;;;;4.00;1.40;;;;;;;;;;5082734;28;20047;-56
2021/04/27 05:24:10;;;;;;;3.30;1.70;;;;;;;;;;5088434;28;20464;-55
2021/04/27 05:26:37;;;;;;;20.70;2.65;;;;;;;;;;5092593;28;20055;-57
2021/04/27 05:29:05;;;;;;;3.65;2.05;;;;;;;;;;5089487;28;20236;-58
2021/04/27 05:31:31;;;;;;;4.10;1.42;;;;;;;;;;5081613;28;20053;-57
2021/04/27 05:33:57;;;;;;;7.20;1.90;;;;;;;;;;5086284;28;20596;-56
2021/04/27 05:36:24;;;;;;;5.43;1.80;;;;;;;;;;5084796;28;20515;-57
2021/04/27 05:38:50;;;;;;;5.60;1.65;;;;;;;;;;5087923;28;20098;-57
2021/04/27 05:41:17;;;;;;;1.92;1.52;;;;;;;;;;5089958;28;20369;-57
2021/04/27 05:43:43;;;;;;;7.90;1.60;;;;;;;;;;5085682;28;20040;-59
2021/04/27 05:46:10;;;;;;;8.43;1.90;;;;;;;;;;5086027;28;20506;-58
2021/04/27 05:48:36;;;;;;;2.92;1.67;;;;;;;;;;5085997;28;20068;-56
2021/04/27 05:51:02;;;;;;;5.88;1.60;;;;;;;;;;5085502;28;20044;-57
2021/04/27 05:53:29;;;;;;;3.83;1.70;;;;;;;;;;5073898;28;20098;-56
2021/04/27 05:55:55;;;;;;;3.50;2.00;;;;;;;;;;5083640;28;20040;-57
2021/04/27 05:58:21;;;;;;;4.47;1.67;;;;;;;;;;5081345;28;20094;-57
2021/04/27 06:00:48;;;;;;;3.30;1.50;;;;;;;;;;5083868;28;20349;-57
2021/04/27 06:03:31;;;;;;;3.75;1.70;;;;;;;;;;5093817;28;20040;-56
2021/04/27 06:05:58;;;;;;;2.95;1.55;;;;;;;;;;5086487;28;20044;-54
2021/04/27 06:08:24;;;;;;;9.45;1.95;;;;;;;;;;5088808;28;20036;-57
2021/04/27 06:10:51;;;;;;;7.47;1.60;;;;;;;;;;5088769;28;20409;-59
2021/04/27 06:13:17;;;;;;;4.93;1.67;;;;;;;;;;5087637;28;20143;-58
2021/04/27 06:15:43;;;;;;;7.60;1.85;;;;;;;;;;5086577;28;20044;-59
2021/04/27 06:18:09;;;;;;;6.32;1.77;;;;;;;;;;5078509;28;20043;-57
2021/04/27 06:20:36;;;;;;;3.40;1.05;;;;;;;;;;5079968;28;20090;-59
2021/04/27 06:23:02;;;;;;;6.55;1.65;;;;;;;;;;5088164;28;21172;-58
2021/04/27 06:25:28;;;;;;;5.78;1.67;;;;;;;;;;5073569;28;20104;-59
2021/04/27 06:27:54;;;;;;;5.32;1.88;;;;;;;;;;5085606;28;20036;-60
2021/04/27 06:30:22;;;;;;;3.65;1.65;;;;;;;;;;5076704;28;20066;-59
2021/04/27 06:32:52;;;;;;;4.82;1.40;;;;;;;;;;5085849;28;20131;-58
2021/04/27 06:35:20;;;;;;;3.17;1.40;;;;;;;;;;5083483;28;20398;-57
2021/04/27 06:37:46;;;;;;;3.67;1.40;;;;;;;;;;5081373;28;20075;-59
2021/04/27 06:40:12;;;;;;;2.42;1.40;;;;;;;;;;5082986;28;20458;-60
2021/04/27 06:42:39;;;;;;;2.75;1.05;;;;;;;;;;5081030;28;20048;-58
2021/04/27 06:45:06;;;;;;;5.60;1.80;;;;;;;;;;5079592;28;20040;-57
2021/04/27 06:47:32;;;;;;;5.38;1.70;;;;;;;;;;5084148;28;20074;-59
2021/04/27 06:49:58;;;;;;;2.83;1.42;;;;;;;;;;5080926;28;20048;-60
2021/04/27 06:52:25;;;;;;;7.47;1.67;;;;;;;;;;5087596;28;20043;-60
2021/04/27 06:54:52;;;;;;;2.92;1.48;;;;;;;;;;5083614;28;20044;-58
2021/04/27 06:57:18;;;;;;;6.60;1.73;;;;;;;;;;5082656;28;20052;-59
2021/04/27 06:59:44;;;;;;;5.07;1.40;;;;;;;;;;5080786;28;20399;-59
2021/04/27 07:02:11;;;;;;;4.88;1.48;;;;;;;;;;5085062;28;20051;-59
2021/04/27 07:04:40;;;;;;;3.50;1.27;;;;;;;;;;5085013;28;20051;-57
2021/04/27 07:07:06;;;;;;;3.33;1.40;;;;;;;;;;5083404;28;20059;-60
2021/04/27 07:09:33;;;;;;;4.35;1.38;;;;;;;;;;5081274;28;20063;-57
2021/04/27 07:11:59;;;;;;;3.20;1.40;;;;;;;;;;5082536;28;20097;-60
2021/04/27 07:14:26;;;;;;;4.45;1.40;;;;;;;;;;5080766;28;20048;-59
2021/04/27 07:16:53;;;;;;;6.75;1.63;;;;;;;;;;5083336;28;20132;-60
2021/04/27 07:19:20;;;;;;;5.80;1.90;;;;;;;;;;5079706;28;20043;-59
2021/04/27 07:21:46;;;;;;;3.17;1.30;;;;;;;;;;5084968;28;20045;-60
2021/04/27 07:24:12;;;;;;;3.30;1.23;;;;;;;;;;5083564;28;20446;-60
2021/04/27 07:26:41;;;;;;;3.70;1.50;;;;;;;;;;5081233;28;20125;-59
2021/04/27 07:29:08;;;;;;;7.55;1.42;;;;;;;;;;5084543;28;20044;-59
2021/04/27 07:31:34;;;;;;;2.73;1.17;;;;;;;;;;5083303;28;20763;-61
2021/04/27 07:34:01;;;;;;;5.07;1.35;;;;;;;;;;5083246;28;20279;-60
2021/04/27 07:36:27;;;;;;;4.43;1.50;;;;;;;;;;5082034;28;20712;-60
2021/04/27 07:38:53;;;;;;;3.55;1.30;;;;;;;;;;5088334;28;20052;-60
2021/04/27 07:41:20;;;;;;;9.18;1.55;;;;;;;;;;5082520;28;20040;-60
2021/04/27 07:43:46;;;;;;;5.97;1.50;;;;;;;;;;5077816;28;20051;-60
2021/04/27 07:46:13;;;;;;;7.85;1.70;;;;;;;;;;5084477;28;20036;-60
2021/04/27 07:48:39;;;;;;;4.88;1.13;;;;;;;;;;5080106;28;20141;-60
2021/04/27 07:51:06;;;;;;;6.00;1.25;;;;;;;;;;5083628;28;20067;-60
2021/04/27 07:53:32;;;;;;;3.38;1.10;;;;;;;;;;5080379;28;20052;-57
2021/04/27 07:55:58;;;;;;;5.45;1.42;;;;;;;;;;5085748;28;20143;-57
2021/04/27 07:58:25;;;;;;;4.07;1.38;;;;;;;;;;5086766;28;20400;-57
2021/04/27 08:00:51;;;;;;;1.95;1.10;;;;;;;;;;5082224;28;20040;-57
2021/04/27 08:03:17;;;;;;;3.92;1.08;;;;;;;;;;5078716;28;20385;-58
2021/04/27 08:05:44;;;;;;;11.57;1.55;;;;;;;;;;5088747;28;20113;-56
2021/04/27 08:08:11;;;;;;;4.00;1.17;;;;;;;;;;5078383;28;20044;-57
2021/04/27 08:10:37;;;;;;;3.10;0.90;;;;;;;;;;5079703;28;20119;-57
2021/04/27 08:13:03;;;;;;;1.67;1.05;;;;;;;;;;5075029;28;20109;-59
2021/04/27 08:15:30;;;;;;;4.88;1.30;;;;;;;;;;5079466;28;20131;-58
2021/04/27 08:17:59;;;;;;;1.00;0.90;;;;;;;;;;5079938;28;20055;-58
2021/04/27 08:20:26;;;;;;;1.88;1.10;;;;;;;;;;5084741;28;20488;-58
2021/04/27 08:22:53;;;;;;;3.55;0.93;;;;;;;;;;5087845;28;20032;-59
2021/04/27 08:25:20;;;;;;;1.23;1.00;;;;;;;;;;5083867;28;20074;-58
2021/04/27 08:27:47;;;;;;;4.43;1.13;;;;;;;;;;5081188;28;20286;-58
2021/04/27 08:30:14;;;;;;;2.90;1.15;;;;;;;;;;5083274;28;20052;-58
2021/04/27 08:32:41;;;;;;;5.32;1.20;;;;;;;;;;5085345;28;20147;-58
2021/04/27 08:35:09;;;;;;;3.67;1.13;;;;;;;;;;5084774;28;20047;-58
2021/04/27 08:37:36;;;;;;;4.65;0.85;;;;;;;;;;5079846;28;20094;-59
2021/04/27 08:40:03;;;;;;;1.55;0.80;;;;;;;;;;5085133;28;20072;-58
2021/04/27 08:42:30;;;;;;;3.60;1.00;;;;;;;;;;5083369;28;20048;-58
2021/04/27 08:44:56;;;;;;;1.85;0.90;;;;;;;;;;5090760;28;20039;-59
2021/04/27 08:47:24;;;;;;;3.60;0.85;;;;;;;;;;5083097;28;20123;-59
2021/04/27 08:49:51;;;;;;;2.75;1.10;;;;;;;;;;5084904;28;20047;-58
2021/04/27 08:52:18;;;;;;;1.83;0.90;;;;;;;;;;5087514;28;20457;-58
2021/04/27 08:54:44;;;;;;;3.17;1.00;;;;;;;;;;5085012;28;20043;-58
2021/04/27 08:57:12;;;;;;;3.50;1.00;;;;;;;;;;5083350;28;20047;-59
2021/04/27 08:59:38;;;;;;;2.20;1.00;;;;;;;;;;5085695;28;20051;-57
2021/04/27 09:02:06;;;;;;;1.98;1.00;;;;;;;;;;5083873;28;20051;-58
2021/04/27 09:04:43;;;;;;;10.15;1.17;;;;;;;;;;5085186;28;20048;-58
2021/04/27 09:07:12;;;;;;;5.40;1.30;;;;;;;;;;5077384;28;20443;-58
2021/04/27 09:09:39;;;;;;;3.72;1.17;;;;;;;;;;5082321;28;20102;-59
2021/04/27 09:12:06;;;;;;;2.28;0.93;;;;;;;;;;5085232;28;20039;-57
2021/04/27 09:14:34;;;;;;;3.45;1.00;;;;;;;;;;5080796;28;20085;-57
2021/04/27 09:17:01;;;;;;;7.03;1.25;;;;;;;;;;5087510;28;20028;-58
2021/04/27 09:19:35;;;;;;;6.88;1.27;;;;;;;;;;5085580;28;20109;-58
2021/04/27 09:22:04;;;;;;;3.00;1.05;;;;;;;;;;5071757;28;20049;-58
2021/04/27 09:24:33;;;;;;;2.38;1.08;;;;;;;;;;5084416;28;20063;-58
2021/04/27 09:26:59;;;;;;;5.80;0.77;;;;;;;;;;5080797;28;20098;-58
2021/04/27 09:29:30;;;;;;;3.10;1.30;;;;;;;;;;5077941;28;20053;-58
2021/04/27 09:31:56;;;;;;;1.67;0.82;;;;;;;;;;5075078;28;20538;-57
2021/04/27 09:34:24;;;;;;;2.05;1.05;;;;;;;;;;5087172;28;20090;-57
2021/04/27 09:36:53;;;;;;;4.78;1.35;;;;;;;;;;5087969;28;20044;-56
2021/04/27 09:39:20;;;;;;;1.45;0.85;;;;;;;;;;5083987;28;20052;-56
2021/04/27 09:41:57;;;;;;;3.03;0.68;;;;;;;;;;5082057;28;20098;-57
2021/04/27 09:44:24;;;;;;;0.93;0.68;;;;;;;;;;5085929;28;20040;-57
2021/04/27 09:47:09;;;;;;;1.95;1.33;;;;;;;;;;5085321;28;20147;-58
2021/04/27 09:49:37;;;;;;;2.28;1.10;;;;;;;;;;5086469;28;20044;-58
2021/04/27 09:52:10;;;;;;;3.10;1.00;;;;;;;;;;5081815;28;20059;-57
2021/04/27 09:54:56;;;;;;;2.70;0.98;;;;;;;;;;5083328;28;20045;-57
2021/04/27 09:57:23;;;;;;;1.42;0.93;;;;;;;;;;5089547;28;20040;-58
2021/04/27 09:59:50;;;;;;;2.58;1.10;;;;;;;;;;5078010;28;20036;-58
2021/04/27 10:02:19;;;;;;;4.05;1.10;;;;;;;;;;5082078;28;20028;-58
2021/04/27 10:04:45;;;;;;;3.88;0.90;;;;;;;;;;5087154;28;20044;-57
2021/04/27 10:07:15;;;;;;;4.65;1.02;;;;;;;;;;5081325;28;20082;-58
2021/04/27 10:09:41;;;;;;;3.08;0.77;;;;;;;;;;5086665;28;20040;-58
2021/04/27 10:12:07;;;;;;;4.30;1.13;;;;;;;;;;5085137;28;20543;-57
2021/04/27 10:14:36;;;;;;;1.67;0.82;;;;;;;;;;5084761;28;20404;-57
2021/04/27 10:17:03;;;;;;;5.65;0.98;;;;;;;;;;5085069;28;20605;-57
2021/04/27 10:19:29;;;;;;;5.40;0.85;;;;;;;;;;5080875;28;20073;-58
2021/04/27 10:21:55;;;;;;;3.95;1.27;;;;;;;;;;5088531;28;20048;-57
2021/04/27 10:24:24;;;;;;;4.25;1.08;;;;;;;;;;5084343;28;20054;-56
2021/04/27 10:26:50;;;;;;;3.50;1.20;;;;;;;;;;5082624;28;20043;-57
2021/04/27 10:29:22;;;;;;;3.15;1.20;;;;;;;;;;5087246;28;20101;-57
2021/04/27 10:32:08;;;;;;;3.47;1.02;;;;;;;;;;5082805;28;21133;-58
2021/04/27 10:34:34;;;;;;;8.68;1.00;;;;;;;;;;5080547;28;20123;-57
2021/04/27 10:37:00;;;;;;;3.88;1.00;;;;;;;;;;5086518;28;20064;-56
2021/04/27 10:39:46;;;;;;;1.80;1.08;;;;;;;;;;5083609;28;20765;-55
2021/04/27 10:42:24;;;;;;;3.28;1.20;;;;;;;;;;5072992;28;20060;-57
2021/04/27 10:44:53;;;;;;;4.10;1.50;;;;;;;;;;5085123;28;20043;-57
2021/04/27 10:47:21;;;;;;;2.05;1.20;;;;;;;;;;5083705;28;20073;-56
2021/04/27 10:49:47;;;;;;;2.33;1.10;;;;;;;;;;5079989;28;20113;-57
2021/04/27 10:52:25;;;;;;;3.97;1.00;;;;;;;;;;5083104;28;20793;-57
2021/04/27 10:55:13;;;;;;;4.05;1.10;;;;;;;;;;5081505;28;20135;-57
2021/04/27 10:57:46;;;;;;;3.35;0.80;;;;;;;;;;5077244;28;20676;-57
2021/04/27 11:00:31;;;;;;;4.88;1.10;;;;;;;;;;5081922;28;20035;-55
2021/04/27 11:03:09;;;;;;;0.80;0.80;;;;;;;;;;5083130;28;20048;-57
2021/04/27 11:05:49;;;;;;;2.63;0.90;;;;;;;;;;5080883;28;20130;-56
2021/04/27 11:08:15;;;;;;;2.22;1.15;;;;;;;;;;5084806;28;20040;-56
2021/04/27 11:10:45;;;;;;;4.28;0.93;;;;;;;;;;5085664;28;20123;-56
2021/04/27 11:13:13;;;;;;;1.90;0.90;;;;;;;;;;5083787;28;20044;-56
2021/04/27 11:15:45;;;;;;;3.65;1.10;;;;;;;;;;5084296;28;20299;-57
2021/04/27 11:18:19;;;;;;;2.00;0.77;;;;;;;;;;5085414;28;20496;-53
2021/04/27 11:21:04;;;;;;;2.10;1.17;;;;;;;;;;5086699;28;20090;-57
2021/04/27 11:23:35;;;;;;;1.73;1.00;;;;;;;;;;5079696;28;20047;-57
2021/04/27 11:26:02;;;;;;;1.35;0.93;;;;;;;;;;5080749;28;20036;-58
2021/04/27 11:28:51;;;;;;;3.15;0.68;;;;;;;;;;5085498;28;20068;-57
2021/04/27 11:31:17;;;;;;;5.45;1.63;;;;;;;;;;5075200;28;20045;-57
2021/04/27 11:33:53;;;;;;;0.95;0.75;;;;;;;;;;5082038;28;20385;-56
2021/04/27 11:36:34;;;;;;;1.60;0.98;;;;;;;;;;5083122;28;20188;-56
2021/04/27 11:39:10;;;;;;;1.30;0.85;;;;;;;;;;5086436;28;20036;-56
2021/04/27 11:41:44;;;;;;;2.28;1.00;;;;;;;;;;5085059;28;20040;-57
2021/04/27 11:44:10;;;;;;;3.67;1.20;;;;;;;;;;5083370;28;20046;-56
2021/04/27 11:46:55;;;;;;;10.47;1.30;;;;;;;;;;5084339;28;20511;-56
2021/04/27 11:49:41;;;;;;;5.18;1.30;;;;;;;;;;5077682;28;20041;-57
2021/04/27 11:52:08;;;;;;;2.70;1.00;;;;;;;;;;5079437;28;20052;-57
2021/04/27 11:54:34;;;;;;;1.33;0.88;;;;;;;;;;5088556;28;20044;-57
2021/04/27 11:57:00;;;;;;;1.40;0.90;;;;;;;;;;5082883;28;20110;-57
2021/04/27 11:59:27;;;;;;;4.10;1.00;;;;;;;;;;5084821;28;20477;-57
2021/04/27 12:02:00;;;;;;;2.00;0.82;;;;;;;;;;5082195;28;20081;-57
2021/04/27 12:04:28;;;;;;;1.70;0.93;;;;;;;;;;5084569;28;20052;-56
2021/04/27 12:06:58;;;;;;;2.08;1.10;;;;;;;;;;5085709;28;20044;-57
2021/04/27 12:09:24;;;;;;;3.00;1.25;;;;;;;;;;5085301;28;20534;-57
2021/04/27 12:11:51;;;;;;;1.27;0.95;;;;;;;;;;5083470;28;20153;-57
2021/04/27 12:14:18;;;;;;;1.85;0.90;;;;;;;;;;5086386;28;20248;-54
2021/04/27 12:16:49;;;;;;;2.97;1.10;;;;;;;;;;5085142;28;20235;-55
2021/04/27 12:19:19;;;;;;;1.33;0.90;;;;;;;;;;5081664;28;20512;-57
2021/04/27 12:21:50;;;;;;;0.85;0.70;;;;;;;;;;5087602;28;20535;-57
2021/04/27 12:24:16;;;;;;;5.35;1.17;;;;;;;;;;5075638;28;20049;-55
2021/04/27 12:26:48;;;;;;;3.63;1.00;;;;;;;;;;5089955;28;20564;-56
2021/04/27 12:29:14;;;;;;;2.20;1.13;;;;;;;;;;5089346;28;20384;-56
2021/04/27 12:31:41;;;;;;;7.25;1.10;;;;;;;;;;5088416;28;20051;-57
2021/04/27 12:34:13;;;;;;;4.68;0.80;;;;;;;;;;5086732;28;20060;-55
2021/04/27 12:36:41;;;;;;;4.63;1.17;;;;;;;;;;5085492;28;20044;-57
2021/04/27 12:39:28;;;;;;;4.15;1.30;;;;;;;;;;5089720;28;20083;-56
2021/04/27 12:41:56;;;;;;;2.65;1.05;;;;;;;;;;5086020;28;20044;-57
2021/04/27 12:44:38;;;;;;;4.13;1.00;;;;;;;;;;5084060;28;20075;-55
2021/04/27 12:47:25;;;;;;;2.85;0.95;;;;;;;;;;5084057;28;20071;-55
2021/04/27 12:50:18;;;;;;;5.20;1.45;;;;;;;;;;5082097;28;20041;-57
2021/04/27 12:52:55;;;;;;;4.18;1.10;;;;;;;;;;5080993;28;20040;-57
2021/04/27 12:55:26;;;;;;;2.15;1.00;;;;;;;;;;5085180;28;20053;-55
2021/04/27 12:58:06;;;;;;;8.77;1.00;;;;;;;;;;5084805;28;20154;-56
2021/04/27 13:00:32;;;;;;;2.45;1.20;;;;;;;;;;5088376;28;20101;-57
2021/04/27 13:03:10;;;;;;;;;;;;;;;;;;5085101;28;20052;-57
2021/04/27 13:05:37;;;;;;;2.90;1.02;;;;;;;;;;5088568;28;19957;-58
2021/04/27 13:08:04;;;;;;;3.63;0.77;;;;;;;;;;5084875;28;20131;-57
2021/04/27 13:10:35;;;;;;;2.30;0.98;;;;;;;;;;5083298;28;20045;-55
2021/04/27 13:13:02;;;;;;;2.70;1.20;;;;;;;;;;5083814;28;20048;-57
2021/04/27 13:15:29;;;;;;;1.42;0.90;;;;;;;;;;5073203;28;20041;-57
2021/04/27 13:17:57;;;;;;;3.28;1.17;;;;;;;;;;5081751;28;20097;-55
2021/04/27 13:20:26;;;;;;;3.05;1.05;;;;;;;;;;5080624;28;20045;-56
2021/04/27 13:22:57;;;;;;;1.75;1.00;;;;;;;;;;5082975;28;20298;-57
2021/04/27 13:25:25;;;;;;;3.90;0.93;;;;;;;;;;5086365;28;20117;-56
2021/04/27 13:27:53;;;;;;;1.60;0.93;;;;;;;;;;5082800;28;20062;-58
2021/04/27 13:30:21;;;;;;;4.28;0.82;;;;;;;;;;5083016;28;20121;-57
2021/04/27 13:32:51;;;;;;;2.67;1.05;;;;;;;;;;5082912;28;20079;-57
2021/04/27 13:35:21;;;;;;;4.28;1.02;;;;;;;;;;5086123;28;20040;-57
2021/04/27 13:37:47;;;;;;;1.40;0.77;;;;;;;;;;5077090;28;20045;-57
2021/04/27 13:40:14;;;;;;;1.98;1.00;;;;;;;;;;5084342;28;20506;-56
2021/04/27 13:42:47;;;;;;;3.10;1.10;;;;;;;;;;5089681;27;20445;-53
2021/04/27 13:45:14;;;;;;;6.07;0.98;;;;;;;;;;5083450;28;20040;-56
2021/04/27 13:47:40;;;;;;;3.30;1.10;;;;;;;;;;5089480;28;20039;-58
2021/04/27 13:50:07;;;;;;;2.85;1.00;;;;;;;;;;5083476;28;20488;-57
2021/04/27 13:52:33;;;;;;;2.93;1.10;;;;;;;;;;5082369;28;20135;-58
2021/04/27 13:54:59;;;;;;;1.42;1.00;;;;;;;;;;5092146;28;20100;-57
2021/04/27 13:57:25;;;;;;;2.17;1.00;;;;;;;;;;5086951;28;20041;-57
2021/04/27 13:59:51;;;;;;;4.63;1.02;;;;;;;;;;5085682;28;20094;-58
2021/04/27 14:02:18;;;;;;;2.42;0.95;;;;;;;;;;5077905;28;20040;-57
2021/04/27 14:04:47;;;;;;;2.88;0.93;;;;;;;;;;5083830;28;20048;-56
2021/04/27 14:07:14;;;;;;;2.45;0.80;;;;;;;;;;5083604;28;20036;-58
2021/04/27 14:09:40;;;;;;;2.87;0.90;;;;;;;;;;5083645;28;20043;-57
2021/04/27 14:12:09;;;;;;;2.08;1.17;;;;;;;;;;5083564;28;20040;-56
2021/04/27 14:14:35;;;;;;;2.13;0.90;;;;;;;;;;5085546;28;20508;-56
2021/04/27 14:17:02;;;;;;;1.77;1.00;;;;;;;;;;5084071;28;20484;-58
2021/04/27 14:19:28;;;;;;;1.63;1.20;;;;;;;;;;5081936;28;20093;-56
2021/04/27 14:21:56;;;;;;;2.05;1.00;;;;;;;;;;5081468;28;20048;-54
2021/04/27 14:24:22;;;;;;;3.45;1.10;;;;;;;;;;5087546;28;20098;-54
2021/04/27 14:26:48;;;;;;;2.22;0.70;;;;;;;;;;5082680;28;20051;-56
2021/04/27 14:29:15;;;;;;;4.10;1.10;;;;;;;;;;5085088;28;20051;-57
2021/04/27 14:31:40;;;;;;;3.53;1.20;;;;;;;;;;5082981;28;20135;-55
2021/04/27 14:34:07;;;;;;;2.55;1.33;;;;;;;;;;5079320;28;20063;-53
2021/04/27 14:36:33;;;;;;;2.55;1.00;;;;;;;;;;5081280;28;20036;-54
2021/04/27 14:38:59;;;;;;;3.20;0.90;;;;;;;;;;5087686;28;20113;-57
2021/04/27 14:41:26;;;;;;;6.18;1.08;;;;;;;;;;5086617;28;20043;-57
2021/04/27 14:43:52;;;;;;;2.65;1.10;;;;;;;;;;5087878;28;20442;-57
2021/04/27 14:46:18;;;;;;;2.83;0.98;;;;;;;;;;5085916;28;20036;-56
2021/04/27 14:48:44;;;;;;;3.38;1.00;;;;;;;;;;5082540;28;20560;-57
2021/04/27 14:51:10;;;;;;;4.22;0.90;;;;;;;;;;5080474;28;20044;-56
2021/04/27 14:53:37;;;;;;;2.97;0.95;;;;;;;;;;5081216;28;20052;-57
2021/04/27 14:56:03;;;;;;;2.28;1.17;;;;;;;;;;5086294;28;20032;-55
2021/04/27 14:58:29;;;;;;;7.93;0.90;;;;;;;;;;5084553;28;20087;-55
2021/04/27 15:00:55;;;;;;;1.60;0.93;;;;;;;;;;5084460;28;20052;-55
2021/04/27 15:03:21;;;;;;;2.58;1.27;;;;;;;;;;5077277;28;20036;-56